Time;durP1;ratioP1;P1;durP2;ratioP2;P2;SDS_P1;SDS_P2;PMS_P1;PMS_P2;Temp;Humidity;BMP_temperature;BMP_pressure;BME280_temperature;BME280_humidity;BME280_pressure;Samples;Min_cycle;Max_cycle;Signal;HPM_P1;HPM_P2
2022/10/23 00:00:02;;;;;;;0.8;0.8;;;;;;;13.3;100.0;101160;;;;
2022/10/23 00:01:00;;;;;;;0.8;0.8;;;;;;;13.3;100.0;101170;;;;
2022/10/23 00:02:01;;;;;;;0.8;0.8;;;;;;;13.3;100.0;101170;;;;
2022/10/23 00:03:00;;;;;;;2.2;0.9;;;;;;;13.2;100.0;101160;;;;
2022/10/23 00:04:01;;;;;;;2.2;0.9;;;;;;;13.2;100.0;101160;;;;
2022/10/23 00:05:00;;;;;;;2.2;0.9;;;;;;;13.2;100.0;101160;;;;
2022/10/23 00:06:02;;;;;;;2.2;0.9;;;;;;;13.2;100.0;101160;;;;
2022/10/23 00:07:00;;;;;;;2.2;0.9;;;;;;;13.2;100.0;101160;;;;
2022/10/23 00:08:00;;;;;;;2.2;0.9;;;;;;;13.2;100.0;101160;;;;
2022/10/23 00:09:00;;;;;;;2.2;0.9;;;;;;;13.1;100.0;101150;;;;
2022/10/23 00:10:00;;;;;;;2.2;0.9;;;;;;;13.1;100.0;101150;;;;
2022/10/23 00:11:00;;;;;;;2.2;0.9;;;;;;;13.1;100.0;101150;;;;
2022/10/23 00:12:00;;;;;;;2.2;0.9;;;;;;;13.1;100.0;101150;;;;
2022/10/23 00:13:00;;;;;;;2.2;0.9;;;;;;;13.2;100.0;101140;;;;
2022/10/23 00:14:01;;;;;;;2.2;0.9;;;;;;;13.2;100.0;101140;;;;
2022/10/23 00:15:00;;;;;;;2.2;0.9;;;;;;;13.3;100.0;101150;;;;
2022/10/23 00:16:00;;;;;;;2.2;0.9;;;;;;;13.3;100.0;101150;;;;
2022/10/23 00:17:00;;;;;;;2.2;0.9;;;;;;;13.3;100.0;101150;;;;
2022/10/23 00:18:00;;;;;;;2.2;0.9;;;;;;;13.3;100.0;101150;;;;
2022/10/23 00:19:00;;;;;;;2.2;0.9;;;;;;;13.3;100.0;101150;;;;
2022/10/23 00:20:00;;;;;;;2.2;0.9;;;;;;;13.3;100.0;101150;;;;
2022/10/23 00:21:00;;;;;;;2.2;0.9;;;;;;;13.3;100.0;101150;;;;
2022/10/23 00:22:00;;;;;;;2.2;0.9;;;;;;;13.3;100.0;101150;;;;
2022/10/23 00:23:00;;;;;;;0.6;0.6;;;;;;;13.3;100.0;101150;;;;
2022/10/23 00:24:00;;;;;;;0.6;0.6;;;;;;;13.3;100.0;101150;;;;
2022/10/23 00:25:00;;;;;;;0.6;0.6;;;;;;;13.3;100.0;101150;;;;
2022/10/23 00:26:00;;;;;;;0.6;0.6;;;;;;;13.3;100.0;101150;;;;
2022/10/23 00:27:00;;;;;;;0.6;0.6;;;;;;;13.3;100.0;101150;;;;
2022/10/23 00:28:00;;;;;;;0.6;0.6;;;;;;;13.3;100.0;101150;;;;
2022/10/23 00:29:00;;;;;;;0.6;0.6;;;;;;;13.3;100.0;101150;;;;
2022/10/23 00:30:00;;;;;;;0.6;0.6;;;;;;;13.3;100.0;101150;;;;
2022/10/23 00:31:00;;;;;;;0.6;0.6;;;;;;;13.3;100.0;101150;;;;
2022/10/23 00:32:00;;;;;;;0.6;0.6;;;;;;;13.3;100.0;101150;;;;
2022/10/23 00:33:00;;;;;;;0.6;0.6;;;;;;;13.3;100.0;101150;;;;
2022/10/23 00:34:00;;;;;;;0.6;0.6;;;;;;;13.3;100.0;101150;;;;
2022/10/23 00:35:00;;;;;;;0.6;0.6;;;;;;;13.3;100.0;101150;;;;
2022/10/23 00:36:02;;;;;;;0.6;0.6;;;;;;;13.3;100.0;101150;;;;
2022/10/23 00:37:00;;;;;;;0.6;0.6;;;;;;;13.2;100.0;101160;;;;
2022/10/23 00:38:00;;;;;;;0.6;0.6;;;;;;;13.2;100.0;101160;;;;
2022/10/23 00:39:00;;;;;;;0.6;0.6;;;;;;;13.2;100.0;101160;;;;
2022/10/23 00:40:00;;;;;;;0.6;0.6;;;;;;;13.2;100.0;101160;;;;
2022/10/23 00:41:00;;;;;;;0.6;0.6;;;;;;;13.1;100.0;101160;;;;
2022/10/23 00:42:00;;;;;;;0.6;0.6;;;;;;;13.1;100.0;101160;;;;
2022/10/23 00:43:00;;;;;;;0.5;0.5;;;;;;;13.2;100.0;101160;;;;
2022/10/23 00:44:03;;;;;;;0.5;0.5;;;;;;;13.2;100.0;101160;;;;
2022/10/23 00:45:10;;;;;;;0.5;0.5;;;;;;;13.2;100.0;101150;;;;
2022/10/23 00:46:00;;;;;;;0.5;0.5;;;;;;;13.2;100.0;101150;;;;
2022/10/23 00:47:00;;;;;;;0.5;0.5;;;;;;;13.2;100.0;101150;;;;
2022/10/23 00:48:00;;;;;;;0.5;0.5;;;;;;;13.2;100.0;101150;;;;
2022/10/23 00:49:01;;;;;;;0.5;0.5;;;;;;;13.2;100.0;101160;;;;
2022/10/23 00:50:00;;;;;;;0.5;0.5;;;;;;;13.2;100.0;101160;;;;
2022/10/23 00:51:00;;;;;;;0.5;0.5;;;;;;;13.2;100.0;101150;;;;
2022/10/23 00:52:03;;;;;;;0.5;0.5;;;;;;;13.2;100.0;101150;;;;
2022/10/23 00:53:02;;;;;;;0.5;0.5;;;;;;;13.1;100.0;101150;;;;
2022/10/23 00:54:06;;;;;;;0.5;0.5;;;;;;;13.1;100.0;101150;;;;
2022/10/23 00:55:00;;;;;;;0.5;0.5;;;;;;;13.2;100.0;101140;;;;
2022/10/23 00:56:02;;;;;;;0.5;0.5;;;;;;;13.2;100.0;101140;;;;
2022/10/23 00:57:01;;;;;;;0.5;0.5;;;;;;;13.2;100.0;101140;;;;
2022/10/23 00:58:00;;;;;;;0.5;0.5;;;;;;;13.2;100.0;101140;;;;
2022/10/23 00:59:00;;;;;;;0.5;0.5;;;;;;;13.2;100.0;101130;;;;
2022/10/23 01:00:00;;;;;;;0.5;0.5;;;;;;;13.2;100.0;101130;;;;
2022/10/23 01:01:00;;;;;;;0.5;0.5;;;;;;;13.2;100.0;101140;;;;
2022/10/23 01:02:00;;;;;;;0.5;0.5;;;;;;;13.2;100.0;101140;;;;
2022/10/23 01:03:00;;;;;;;0.7;0.7;;;;;;;13.2;100.0;101150;;;;
2022/10/23 01:04:01;;;;;;;0.7;0.7;;;;;;;13.2;100.0;101150;;;;
2022/10/23 01:05:00;;;;;;;0.7;0.7;;;;;;;13.2;100.0;101140;;;;
2022/10/23 01:06:00;;;;;;;0.7;0.7;;;;;;;13.2;100.0;101140;;;;
2022/10/23 01:07:10;;;;;;;0.7;0.7;;;;;;;13.2;100.0;101140;;;;
2022/10/23 01:08:01;;;;;;;0.7;0.7;;;;;;;13.2;100.0;101140;;;;
2022/10/23 01:09:08;;;;;;;0.7;0.7;;;;;;;13.1;100.0;101150;;;;
2022/10/23 01:10:04;;;;;;;0.7;0.7;;;;;;;13.1;100.0;101150;;;;
2022/10/23 01:11:06;;;;;;;0.7;0.7;;;;;;;13.2;100.0;101150;;;;
2022/10/23 01:12:05;;;;;;;0.7;0.7;;;;;;;13.2;100.0;101150;;;;
2022/10/23 01:13:01;;;;;;;0.7;0.7;;;;;;;13.1;100.0;101150;;;;
2022/10/23 01:14:01;;;;;;;0.7;0.7;;;;;;;13.1;100.0;101150;;;;
2022/10/23 01:15:06;;;;;;;0.7;0.7;;;;;;;13.2;100.0;101140;;;;
2022/10/23 01:16:06;;;;;;;0.7;0.7;;;;;;;13.2;100.0;101140;;;;
2022/10/23 01:17:10;;;;;;;0.7;0.7;;;;;;;13.1;100.0;101130;;;;
2022/10/23 01:18:00;;;;;;;0.7;0.7;;;;;;;13.1;100.0;101130;;;;
2022/10/23 01:19:06;;;;;;;0.7;0.7;;;;;;;13.1;100.0;101130;;;;
2022/10/23 01:20:00;;;;;;;0.7;0.7;;;;;;;13.1;100.0;101130;;;;
2022/10/23 01:21:00;;;;;;;0.7;0.7;;;;;;;13.1;100.0;101130;;;;
2022/10/23 01:22:01;;;;;;;0.7;0.7;;;;;;;13.1;100.0;101130;;;;
2022/10/23 01:23:07;;;;;;;0.8;0.8;;;;;;;13.2;100.0;101130;;;;
2022/10/23 01:24:03;;;;;;;0.8;0.8;;;;;;;13.2;100.0;101130;;;;
2022/10/23 01:25:06;;;;;;;0.8;0.8;;;;;;;13.2;100.0;101130;;;;
2022/10/23 01:26:03;;;;;;;0.8;0.8;;;;;;;13.2;100.0;101130;;;;
2022/10/23 01:27:03;;;;;;;0.8;0.8;;;;;;;13.2;100.0;101130;;;;
2022/10/23 01:28:01;;;;;;;0.8;0.8;;;;;;;13.2;100.0;101130;;;;
2022/10/23 01:29:10;;;;;;;0.8;0.8;;;;;;;13.2;100.0;101120;;;;
2022/10/23 01:30:00;;;;;;;0.8;0.8;;;;;;;13.2;100.0;101120;;;;
2022/10/23 01:31:01;;;;;;;0.8;0.8;;;;;;;13.1;100.0;101130;;;;
2022/10/23 01:32:05;;;;;;;0.8;0.8;;;;;;;13.1;100.0;101130;;;;
2022/10/23 01:33:05;;;;;;;0.8;0.8;;;;;;;13.2;100.0;101120;;;;
2022/10/23 01:34:06;;;;;;;0.8;0.8;;;;;;;13.2;100.0;101120;;;;
2022/10/23 01:35:03;;;;;;;0.8;0.8;;;;;;;13.1;100.0;101120;;;;
2022/10/23 01:36:05;;;;;;;0.8;0.8;;;;;;;13.1;100.0;101120;;;;
2022/10/23 01:37:01;;;;;;;0.8;0.8;;;;;;;13.0;100.0;101120;;;;
2022/10/23 01:38:02;;;;;;;0.8;0.8;;;;;;;13.0;100.0;101120;;;;
2022/10/23 01:39:03;;;;;;;0.8;0.8;;;;;;;13.1;100.0;101120;;;;
2022/10/23 01:40:02;;;;;;;0.8;0.8;;;;;;;13.1;100.0;101120;;;;
2022/10/23 01:41:03;;;;;;;0.8;0.8;;;;;;;13.0;100.0;101120;;;;
2022/10/23 01:42:06;;;;;;;0.8;0.8;;;;;;;13.0;100.0;101120;;;;
2022/10/23 01:43:05;;;;;;;0.5;0.5;;;;;;;13.0;100.0;101120;;;;
2022/10/23 01:44:01;;;;;;;0.5;0.5;;;;;;;13.0;100.0;101120;;;;
2022/10/23 01:45:02;;;;;;;0.5;0.5;;;;;;;13.0;100.0;101120;;;;
2022/10/23 01:46:03;;;;;;;0.5;0.5;;;;;;;13.0;100.0;101120;;;;
2022/10/23 01:47:01;;;;;;;0.5;0.5;;;;;;;13.0;100.0;101120;;;;
2022/10/23 01:48:01;;;;;;;0.5;0.5;;;;;;;13.0;100.0;101120;;;;
2022/10/23 01:49:01;;;;;;;0.5;0.5;;;;;;;12.9;100.0;101110;;;;
2022/10/23 01:50:01;;;;;;;0.5;0.5;;;;;;;12.9;100.0;101110;;;;
2022/10/23 01:51:02;;;;;;;0.5;0.5;;;;;;;12.9;100.0;101110;;;;
2022/10/23 01:52:01;;;;;;;0.5;0.5;;;;;;;12.9;100.0;101110;;;;
2022/10/23 01:53:00;;;;;;;0.5;0.5;;;;;;;13.0;100.0;101110;;;;
2022/10/23 01:54:00;;;;;;;0.5;0.5;;;;;;;13.0;100.0;101110;;;;
2022/10/23 01:55:00;;;;;;;0.5;0.5;;;;;;;12.9;100.0;101110;;;;
2022/10/23 01:56:01;;;;;;;0.5;0.5;;;;;;;12.9;100.0;101110;;;;
2022/10/23 01:57:01;;;;;;;0.5;0.5;;;;;;;12.8;100.0;101110;;;;
2022/10/23 01:58:01;;;;;;;0.5;0.5;;;;;;;12.8;100.0;101110;;;;
2022/10/23 01:59:02;;;;;;;0.5;0.5;;;;;;;12.8;100.0;101110;;;;
2022/10/23 02:00:03;;;;;;;0.5;0.5;;;;;;;12.8;100.0;101110;;;;
2022/10/23 02:01:02;;;;;;;0.5;0.5;;;;;;;12.8;100.0;101100;;;;
2022/10/23 02:02:01;;;;;;;0.5;0.5;;;;;;;12.8;100.0;101100;;;;
2022/10/23 02:03:03;;;;;;;0.6;0.6;;;;;;;12.8;100.0;101090;;;;
2022/10/23 02:04:02;;;;;;;0.6;0.6;;;;;;;12.8;100.0;101090;;;;
2022/10/23 02:05:05;;;;;;;0.6;0.6;;;;;;;12.8;100.0;101090;;;;
2022/10/23 02:06:00;;;;;;;0.6;0.6;;;;;;;12.8;100.0;101090;;;;
2022/10/23 02:07:00;;;;;;;0.6;0.6;;;;;;;12.8;100.0;101090;;;;
2022/10/23 02:08:00;;;;;;;0.6;0.6;;;;;;;12.8;100.0;101090;;;;
2022/10/23 02:09:00;;;;;;;0.6;0.6;;;;;;;12.8;100.0;101090;;;;
2022/10/23 02:10:01;;;;;;;0.6;0.6;;;;;;;12.8;100.0;101090;;;;
2022/10/23 02:11:08;;;;;;;0.6;0.6;;;;;;;12.8;100.0;101090;;;;
2022/10/23 02:12:00;;;;;;;0.6;0.6;;;;;;;12.8;100.0;101090;;;;
2022/10/23 02:13:04;;;;;;;0.6;0.6;;;;;;;12.7;100.0;101080;;;;
2022/10/23 02:14:08;;;;;;;0.6;0.6;;;;;;;12.7;100.0;101080;;;;
2022/10/23 02:15:07;;;;;;;0.6;0.6;;;;;;;12.8;100.0;101090;;;;
2022/10/23 02:16:04;;;;;;;0.6;0.6;;;;;;;12.8;100.0;101090;;;;
2022/10/23 02:17:06;;;;;;;0.6;0.6;;;;;;;12.8;100.0;101090;;;;
2022/10/23 02:18:10;;;;;;;0.6;0.6;;;;;;;12.8;100.0;101090;;;;
2022/10/23 02:19:01;;;;;;;0.6;0.6;;;;;;;12.7;100.0;101090;;;;
2022/10/23 02:20:07;;;;;;;0.6;0.6;;;;;;;12.7;100.0;101090;;;;
2022/10/23 02:21:06;;;;;;;0.6;0.6;;;;;;;12.7;100.0;101080;;;;
2022/10/23 02:22:10;;;;;;;0.6;0.6;;;;;;;12.7;100.0;101080;;;;
2022/10/23 02:23:06;;;;;;;0.6;0.6;;;;;;;12.8;100.0;101090;;;;
2022/10/23 02:24:02;;;;;;;0.6;0.6;;;;;;;12.8;100.0;101090;;;;
2022/10/23 02:25:08;;;;;;;0.6;0.6;;;;;;;12.8;100.0;101090;;;;
2022/10/23 02:26:08;;;;;;;0.6;0.6;;;;;;;12.8;100.0;101090;;;;
2022/10/23 02:27:01;;;;;;;0.6;0.6;;;;;;;12.7;100.0;101090;;;;
2022/10/23 02:28:02;;;;;;;0.6;0.6;;;;;;;12.7;100.0;101090;;;;
2022/10/23 02:29:06;;;;;;;0.6;0.6;;;;;;;12.8;100.0;101080;;;;
2022/10/23 02:30:03;;;;;;;0.6;0.6;;;;;;;12.8;100.0;101080;;;;
2022/10/23 02:31:01;;;;;;;0.6;0.6;;;;;;;12.7;100.0;101080;;;;
2022/10/23 02:32:00;;;;;;;0.6;0.6;;;;;;;12.7;100.0;101080;;;;
2022/10/23 02:33:01;;;;;;;0.6;0.6;;;;;;;12.7;100.0;101090;;;;
2022/10/23 02:34:00;;;;;;;0.6;0.6;;;;;;;12.7;100.0;101090;;;;
2022/10/23 02:35:00;;;;;;;0.6;0.6;;;;;;;12.7;100.0;101090;;;;
2022/10/23 02:36:00;;;;;;;0.6;0.6;;;;;;;12.7;100.0;101090;;;;
2022/10/23 02:37:00;;;;;;;0.6;0.6;;;;;;;12.7;100.0;101090;;;;
2022/10/23 02:38:00;;;;;;;0.6;0.6;;;;;;;12.7;100.0;101090;;;;
2022/10/23 02:39:00;;;;;;;0.6;0.6;;;;;;;12.8;100.0;101090;;;;
2022/10/23 02:40:00;;;;;;;0.6;0.6;;;;;;;12.8;100.0;101090;;;;
2022/10/23 02:41:07;;;;;;;0.6;0.6;;;;;;;12.9;100.0;101080;;;;
2022/10/23 02:42:00;;;;;;;0.8;0.8;;;;;;;12.9;100.0;101080;;;;
2022/10/23 02:43:04;;;;;;;0.8;0.8;;;;;;;12.8;100.0;101080;;;;
2022/10/23 02:44:10;;;;;;;0.8;0.8;;;;;;;12.8;100.0;101080;;;;
2022/10/23 02:45:10;;;;;;;0.8;0.8;;;;;;;12.8;100.0;101080;;;;
2022/10/23 02:46:07;;;;;;;0.8;0.8;;;;;;;12.8;100.0;101080;;;;
2022/10/23 02:47:00;;;;;;;0.8;0.8;;;;;;;12.8;100.0;101070;;;;
2022/10/23 02:48:10;;;;;;;0.8;0.8;;;;;;;12.8;100.0;101070;;;;
2022/10/23 02:49:10;;;;;;;0.8;0.8;;;;;;;12.8;100.0;101070;;;;
2022/10/23 02:50:10;;;;;;;0.8;0.8;;;;;;;12.8;100.0;101070;;;;
2022/10/23 02:51:10;;;;;;;0.8;0.8;;;;;;;12.9;100.0;101060;;;;
2022/10/23 02:52:06;;;;;;;0.8;0.8;;;;;;;12.9;100.0;101060;;;;
2022/10/23 02:53:10;;;;;;;0.8;0.8;;;;;;;12.8;100.0;101060;;;;
2022/10/23 02:54:10;;;;;;;0.8;0.8;;;;;;;12.8;100.0;101060;;;;
2022/10/23 02:55:07;;;;;;;0.8;0.8;;;;;;;12.7;100.0;101050;;;;
2022/10/23 02:56:00;;;;;;;0.8;0.8;;;;;;;12.7;100.0;101050;;;;
2022/10/23 02:57:04;;;;;;;0.8;0.8;;;;;;;12.7;100.0;101040;;;;
2022/10/23 02:58:07;;;;;;;0.8;0.8;;;;;;;12.7;100.0;101040;;;;
2022/10/23 02:59:03;;;;;;;0.8;0.8;;;;;;;12.7;100.0;101030;;;;
2022/10/23 03:00:03;;;;;;;0.8;0.8;;;;;;;12.7;100.0;101030;;;;
2022/10/23 03:01:07;;;;;;;0.8;0.8;;;;;;;12.8;100.0;101030;;;;
2022/10/23 03:02:03;;;;;;;1.5;1.5;;;;;;;12.8;100.0;101030;;;;
2022/10/23 03:03:04;;;;;;;1.5;1.5;;;;;;;12.7;100.0;101030;;;;
2022/10/23 03:04:01;;;;;;;1.5;1.5;;;;;;;12.7;100.0;101030;;;;
2022/10/23 03:05:01;;;;;;;1.5;1.5;;;;;;;12.7;100.0;101020;;;;
2022/10/23 03:06:00;;;;;;;1.5;1.5;;;;;;;12.7;100.0;101020;;;;
2022/10/23 03:07:00;;;;;;;1.5;1.5;;;;;;;12.9;100.0;101020;;;;
2022/10/23 03:08:02;;;;;;;1.5;1.5;;;;;;;12.9;100.0;101020;;;;
2022/10/23 03:09:02;;;;;;;1.5;1.5;;;;;;;12.8;100.0;101010;;;;
2022/10/23 03:10:00;;;;;;;1.5;1.5;;;;;;;12.8;100.0;101010;;;;
2022/10/23 03:11:00;;;;;;;1.5;1.5;;;;;;;12.7;100.0;101010;;;;
2022/10/23 03:12:00;;;;;;;1.5;1.5;;;;;;;12.7;100.0;101010;;;;
2022/10/23 03:13:00;;;;;;;1.5;1.5;;;;;;;12.8;100.0;101010;;;;
2022/10/23 03:14:00;;;;;;;1.5;1.5;;;;;;;12.8;100.0;101010;;;;
2022/10/23 03:15:00;;;;;;;1.5;1.5;;;;;;;12.9;100.0;101010;;;;
2022/10/23 03:16:00;;;;;;;1.5;1.5;;;;;;;12.9;100.0;101010;;;;
2022/10/23 03:17:00;;;;;;;1.5;1.5;;;;;;;12.8;100.0;101010;;;;
2022/10/23 03:18:00;;;;;;;1.5;1.5;;;;;;;12.8;100.0;101010;;;;
2022/10/23 03:19:00;;;;;;;1.5;1.5;;;;;;;12.8;100.0;101000;;;;
2022/10/23 03:20:00;;;;;;;1.5;1.5;;;;;;;12.8;100.0;101000;;;;
2022/10/23 03:21:00;;;;;;;1.5;1.5;;;;;;;12.8;100.0;101000;;;;
2022/10/23 03:22:00;;;;;;;0.7;0.7;;;;;;;12.8;100.0;101000;;;;
2022/10/23 03:23:00;;;;;;;0.7;0.7;;;;;;;12.8;100.0;100990;;;;
2022/10/23 03:24:00;;;;;;;0.7;0.7;;;;;;;12.8;100.0;100990;;;;
2022/10/23 03:25:00;;;;;;;0.7;0.7;;;;;;;12.8;100.0;101000;;;;
2022/10/23 03:26:00;;;;;;;0.7;0.7;;;;;;;12.8;100.0;101000;;;;
2022/10/23 03:27:00;;;;;;;0.7;0.7;;;;;;;12.9;100.0;101000;;;;
2022/10/23 03:28:00;;;;;;;0.7;0.7;;;;;;;12.9;100.0;101000;;;;
2022/10/23 03:29:00;;;;;;;0.7;0.7;;;;;;;12.9;100.0;101000;;;;
2022/10/23 03:30:00;;;;;;;0.7;0.7;;;;;;;12.9;100.0;101000;;;;
2022/10/23 03:31:01;;;;;;;0.7;0.7;;;;;;;12.9;100.0;100990;;;;
2022/10/23 03:32:00;;;;;;;0.7;0.7;;;;;;;12.9;100.0;100990;;;;
2022/10/23 03:33:00;;;;;;;0.7;0.7;;;;;;;13.0;100.0;100990;;;;
2022/10/23 03:34:00;;;;;;;0.7;0.7;;;;;;;13.0;100.0;100990;;;;
2022/10/23 03:35:00;;;;;;;0.7;0.7;;;;;;;12.8;100.0;100990;;;;
2022/10/23 03:36:00;;;;;;;0.7;0.7;;;;;;;12.8;100.0;100990;;;;
2022/10/23 03:37:00;;;;;;;0.7;0.7;;;;;;;13.0;100.0;100990;;;;
2022/10/23 03:38:00;;;;;;;0.7;0.7;;;;;;;13.0;100.0;100990;;;;
2022/10/23 03:39:00;;;;;;;0.7;0.7;;;;;;;12.9;100.0;100990;;;;
2022/10/23 03:40:00;;;;;;;0.7;0.7;;;;;;;12.9;100.0;100990;;;;
2022/10/23 03:41:00;;;;;;;0.7;0.7;;;;;;;12.9;100.0;100980;;;;
2022/10/23 03:42:00;;;;;;;0.4;0.4;;;;;;;12.9;100.0;100980;;;;
2022/10/23 03:43:00;;;;;;;0.4;0.4;;;;;;;13.0;100.0;100980;;;;
2022/10/23 03:44:00;;;;;;;0.4;0.4;;;;;;;13.0;100.0;100980;;;;
2022/10/23 03:45:00;;;;;;;0.4;0.4;;;;;;;13.1;100.0;100970;;;;
2022/10/23 03:46:00;;;;;;;0.4;0.4;;;;;;;13.1;100.0;100970;;;;
2022/10/23 03:47:00;;;;;;;0.4;0.4;;;;;;;13.0;100.0;100970;;;;
2022/10/23 03:48:00;;;;;;;0.4;0.4;;;;;;;13.0;100.0;100970;;;;
2022/10/23 03:49:00;;;;;;;0.4;0.4;;;;;;;13.0;100.0;100970;;;;
2022/10/23 03:50:00;;;;;;;0.4;0.4;;;;;;;13.0;100.0;100970;;;;
2022/10/23 03:51:00;;;;;;;0.4;0.4;;;;;;;13.0;100.0;100970;;;;
2022/10/23 03:52:00;;;;;;;0.4;0.4;;;;;;;13.0;100.0;100970;;;;
2022/10/23 03:53:00;;;;;;;0.4;0.4;;;;;;;13.0;100.0;100960;;;;
2022/10/23 03:54:00;;;;;;;0.4;0.4;;;;;;;13.0;100.0;100960;;;;
2022/10/23 03:55:00;;;;;;;0.4;0.4;;;;;;;13.1;100.0;100960;;;;
2022/10/23 03:56:00;;;;;;;0.4;0.4;;;;;;;13.1;100.0;100960;;;;
2022/10/23 03:57:00;;;;;;;0.4;0.4;;;;;;;13.0;100.0;100960;;;;
2022/10/23 03:58:00;;;;;;;0.4;0.4;;;;;;;13.0;100.0;100960;;;;
2022/10/23 03:59:00;;;;;;;0.4;0.4;;;;;;;13.0;100.0;100970;;;;
2022/10/23 04:00:00;;;;;;;0.4;0.4;;;;;;;13.0;100.0;100970;;;;
2022/10/23 04:01:00;;;;;;;0.4;0.4;;;;;;;12.9;100.0;100970;;;;
2022/10/23 04:02:00;;;;;;;0.6;0.6;;;;;;;12.9;100.0;100970;;;;
2022/10/23 04:03:00;;;;;;;0.6;0.6;;;;;;;13.0;100.0;100970;;;;
2022/10/23 04:04:00;;;;;;;0.6;0.6;;;;;;;13.0;100.0;100970;;;;
2022/10/23 04:05:00;;;;;;;0.6;0.6;;;;;;;13.1;100.0;100960;;;;
2022/10/23 04:06:00;;;;;;;0.6;0.6;;;;;;;13.1;100.0;100960;;;;
2022/10/23 04:07:00;;;;;;;0.6;0.6;;;;;;;13.0;100.0;100970;;;;
2022/10/23 04:08:00;;;;;;;0.6;0.6;;;;;;;13.0;100.0;100970;;;;
2022/10/23 04:09:00;;;;;;;0.6;0.6;;;;;;;13.0;100.0;100970;;;;
2022/10/23 04:10:00;;;;;;;0.6;0.6;;;;;;;13.0;100.0;100970;;;;
2022/10/23 04:11:00;;;;;;;0.6;0.6;;;;;;;12.9;100.0;100960;;;;
2022/10/23 04:12:00;;;;;;;0.6;0.6;;;;;;;12.9;100.0;100960;;;;
2022/10/23 04:13:00;;;;;;;0.6;0.6;;;;;;;13.1;100.0;100960;;;;
2022/10/23 04:14:00;;;;;;;0.6;0.6;;;;;;;13.1;100.0;100960;;;;
2022/10/23 04:15:00;;;;;;;0.6;0.6;;;;;;;12.9;100.0;100950;;;;
2022/10/23 04:16:00;;;;;;;0.6;0.6;;;;;;;12.9;100.0;100950;;;;
2022/10/23 04:17:00;;;;;;;0.6;0.6;;;;;;;12.9;100.0;100950;;;;
2022/10/23 04:18:00;;;;;;;0.6;0.6;;;;;;;12.9;100.0;100950;;;;
2022/10/23 04:19:00;;;;;;;0.6;0.6;;;;;;;12.9;100.0;100940;;;;
2022/10/23 04:20:00;;;;;;;0.6;0.6;;;;;;;12.9;100.0;100940;;;;
2022/10/23 04:21:00;;;;;;;0.6;0.6;;;;;;;12.8;100.0;100940;;;;
2022/10/23 04:22:00;;;;;;;0.6;0.6;;;;;;;12.8;100.0;100940;;;;
2022/10/23 04:23:00;;;;;;;0.6;0.6;;;;;;;12.9;100.0;100930;;;;
2022/10/23 04:24:00;;;;;;;0.6;0.6;;;;;;;12.9;100.0;100930;;;;
2022/10/23 04:25:00;;;;;;;0.6;0.6;;;;;;;13.0;100.0;100930;;;;
2022/10/23 04:26:00;;;;;;;0.6;0.6;;;;;;;13.0;100.0;100930;;;;
2022/10/23 04:27:00;;;;;;;0.6;0.6;;;;;;;12.9;100.0;100930;;;;
2022/10/23 04:28:00;;;;;;;0.6;0.6;;;;;;;12.9;100.0;100930;;;;
2022/10/23 04:29:00;;;;;;;0.6;0.6;;;;;;;12.9;100.0;100930;;;;
2022/10/23 04:30:00;;;;;;;0.6;0.6;;;;;;;12.9;100.0;100930;;;;
2022/10/23 04:31:00;;;;;;;0.6;0.6;;;;;;;12.9;100.0;100920;;;;
2022/10/23 04:32:00;;;;;;;0.6;0.6;;;;;;;12.9;100.0;100920;;;;
2022/10/23 04:33:00;;;;;;;0.6;0.6;;;;;;;12.9;100.0;100930;;;;
2022/10/23 04:34:00;;;;;;;0.6;0.6;;;;;;;12.9;100.0;100930;;;;
2022/10/23 04:35:00;;;;;;;0.6;0.6;;;;;;;13.0;100.0;100930;;;;
2022/10/23 04:36:00;;;;;;;0.6;0.6;;;;;;;13.0;100.0;100930;;;;
2022/10/23 04:37:00;;;;;;;0.6;0.6;;;;;;;13.0;100.0;100930;;;;
2022/10/23 04:38:00;;;;;;;0.6;0.6;;;;;;;13.0;100.0;100930;;;;
2022/10/23 04:39:00;;;;;;;0.6;0.6;;;;;;;12.9;100.0;100920;;;;
2022/10/23 04:40:00;;;;;;;0.6;0.6;;;;;;;12.9;100.0;100920;;;;
2022/10/23 04:41:00;;;;;;;0.6;0.6;;;;;;;13.1;100.0;100930;;;;
2022/10/23 04:42:00;;;;;;;0.6;0.6;;;;;;;13.1;100.0;100930;;;;
2022/10/23 04:43:00;;;;;;;0.6;0.6;;;;;;;12.9;100.0;100930;;;;
2022/10/23 04:44:00;;;;;;;0.6;0.6;;;;;;;12.9;100.0;100930;;;;
2022/10/23 04:45:00;;;;;;;0.6;0.6;;;;;;;12.8;100.0;100930;;;;
2022/10/23 04:46:00;;;;;;;0.6;0.6;;;;;;;12.8;100.0;100930;;;;
2022/10/23 04:47:00;;;;;;;0.6;0.6;;;;;;;12.9;100.0;100930;;;;
2022/10/23 04:48:00;;;;;;;0.6;0.6;;;;;;;12.9;100.0;100930;;;;
2022/10/23 04:49:00;;;;;;;0.6;0.6;;;;;;;13.0;100.0;100930;;;;
2022/10/23 04:50:00;;;;;;;0.6;0.6;;;;;;;13.0;100.0;100930;;;;
2022/10/23 04:51:01;;;;;;;0.6;0.6;;;;;;;12.8;100.0;100920;;;;
2022/10/23 04:52:00;;;;;;;0.6;0.6;;;;;;;12.8;100.0;100920;;;;
2022/10/23 04:53:00;;;;;;;0.6;0.6;;;;;;;12.7;100.0;100920;;;;
2022/10/23 04:54:00;;;;;;;0.6;0.6;;;;;;;12.7;100.0;100920;;;;
2022/10/23 04:55:00;;;;;;;0.6;0.6;;;;;;;12.9;100.0;100920;;;;
2022/10/23 04:56:00;;;;;;;0.6;0.6;;;;;;;12.9;100.0;100920;;;;
2022/10/23 04:57:00;;;;;;;0.6;0.6;;;;;;;12.9;100.0;100920;;;;
2022/10/23 04:58:00;;;;;;;0.6;0.6;;;;;;;12.9;100.0;100920;;;;
2022/10/23 04:59:00;;;;;;;0.6;0.6;;;;;;;12.8;100.0;100930;;;;
2022/10/23 05:00:00;;;;;;;0.6;0.6;;;;;;;12.8;100.0;100930;;;;
2022/10/23 05:01:01;;;;;;;0.6;0.6;;;;;;;12.8;100.0;100920;;;;
2022/10/23 05:02:00;;;;;;;0.6;0.6;;;;;;;12.8;100.0;100920;;;;
2022/10/23 05:03:00;;;;;;;0.6;0.6;;;;;;;13.0;100.0;100930;;;;
2022/10/23 05:04:00;;;;;;;0.6;0.6;;;;;;;13.0;100.0;100930;;;;
2022/10/23 05:05:00;;;;;;;0.6;0.6;;;;;;;13.0;100.0;100920;;;;
2022/10/23 05:06:00;;;;;;;0.6;0.6;;;;;;;13.0;100.0;100920;;;;
2022/10/23 05:07:00;;;;;;;0.6;0.6;;;;;;;12.9;100.0;100920;;;;
2022/10/23 05:08:00;;;;;;;0.6;0.6;;;;;;;12.9;100.0;100920;;;;
2022/10/23 05:09:00;;;;;;;0.6;0.6;;;;;;;13.0;100.0;100920;;;;
2022/10/23 05:10:00;;;;;;;0.6;0.6;;;;;;;13.0;100.0;100920;;;;
2022/10/23 05:11:00;;;;;;;0.6;0.6;;;;;;;13.0;100.0;100910;;;;
2022/10/23 05:12:00;;;;;;;0.6;0.6;;;;;;;13.0;100.0;100910;;;;
2022/10/23 05:13:00;;;;;;;0.6;0.6;;;;;;;13.1;100.0;100910;;;;
2022/10/23 05:14:00;;;;;;;0.6;0.6;;;;;;;13.1;100.0;100910;;;;
2022/10/23 05:15:00;;;;;;;0.6;0.6;;;;;;;13.2;100.0;100910;;;;
2022/10/23 05:16:00;;;;;;;0.6;0.6;;;;;;;13.2;100.0;100910;;;;
2022/10/23 05:17:01;;;;;;;0.6;0.6;;;;;;;13.1;100.0;100910;;;;
2022/10/23 05:18:04;;;;;;;0.6;0.6;;;;;;;13.1;100.0;100910;;;;
2022/10/23 05:19:00;;;;;;;0.6;0.6;;;;;;;13.3;100.0;100910;;;;
2022/10/23 05:20:01;;;;;;;0.6;0.6;;;;;;;13.3;100.0;100910;;;;
2022/10/23 05:21:06;;;;;;;0.6;0.6;;;;;;;13.3;100.0;100900;;;;
2022/10/23 05:22:00;;;;;;;0.6;0.6;;;;;;;13.3;100.0;100900;;;;
2022/10/23 05:23:01;;;;;;;0.6;0.6;;;;;;;13.3;100.0;100900;;;;
2022/10/23 05:24:00;;;;;;;0.6;0.6;;;;;;;13.3;100.0;100900;;;;
2022/10/23 05:25:01;;;;;;;0.6;0.6;;;;;;;13.3;100.0;100900;;;;
2022/10/23 05:26:02;;;;;;;0.6;0.6;;;;;;;13.3;100.0;100900;;;;
2022/10/23 05:27:00;;;;;;;0.6;0.6;;;;;;;13.2;100.0;100900;;;;
2022/10/23 05:28:00;;;;;;;0.6;0.6;;;;;;;13.2;100.0;100900;;;;
2022/10/23 05:29:00;;;;;;;0.6;0.6;;;;;;;13.1;100.0;100900;;;;
2022/10/23 05:30:01;;;;;;;0.6;0.6;;;;;;;13.1;100.0;100900;;;;
2022/10/23 05:31:01;;;;;;;0.6;0.6;;;;;;;13.2;100.0;100900;;;;
2022/10/23 05:32:01;;;;;;;0.6;0.6;;;;;;;13.2;100.0;100900;;;;
2022/10/23 05:33:01;;;;;;;0.6;0.6;;;;;;;13.3;100.0;100900;;;;
2022/10/23 05:34:00;;;;;;;0.6;0.6;;;;;;;13.3;100.0;100900;;;;
2022/10/23 05:35:01;;;;;;;0.6;0.6;;;;;;;13.3;100.0;100900;;;;
2022/10/23 05:36:00;;;;;;;0.6;0.6;;;;;;;13.3;100.0;100900;;;;
2022/10/23 05:37:00;;;;;;;0.6;0.6;;;;;;;13.1;100.0;100900;;;;
2022/10/23 05:38:00;;;;;;;0.6;0.6;;;;;;;13.1;100.0;100900;;;;
2022/10/23 05:39:01;;;;;;;0.6;0.6;;;;;;;13.2;100.0;100900;;;;
2022/10/23 05:40:00;;;;;;;0.6;0.6;;;;;;;13.2;100.0;100900;;;;
2022/10/23 05:41:00;;;;;;;0.6;0.6;;;;;;;13.1;100.0;100900;;;;
2022/10/23 05:42:00;;;;;;;0.4;0.4;;;;;;;13.1;100.0;100900;;;;
2022/10/23 05:43:00;;;;;;;0.4;0.4;;;;;;;13.1;100.0;100890;;;;
2022/10/23 05:44:00;;;;;;;0.4;0.4;;;;;;;13.1;100.0;100890;;;;
2022/10/23 05:45:00;;;;;;;0.4;0.4;;;;;;;13.1;100.0;100890;;;;
2022/10/23 05:46:02;;;;;;;0.4;0.4;;;;;;;13.1;100.0;100890;;;;
2022/10/23 05:47:00;;;;;;;0.4;0.4;;;;;;;13.1;100.0;100890;;;;
2022/10/23 05:48:10;;;;;;;0.4;0.4;;;;;;;13.1;100.0;100890;;;;
2022/10/23 05:49:00;;;;;;;0.4;0.4;;;;;;;13.2;100.0;100890;;;;
2022/10/23 05:50:00;;;;;;;0.4;0.4;;;;;;;13.2;100.0;100890;;;;
2022/10/23 05:51:02;;;;;;;0.4;0.4;;;;;;;13.1;100.0;100890;;;;
2022/10/23 05:52:00;;;;;;;0.4;0.4;;;;;;;13.1;100.0;100890;;;;
2022/10/23 05:53:00;;;;;;;0.4;0.4;;;;;;;13.2;100.0;100890;;;;
2022/10/23 05:54:00;;;;;;;0.4;0.4;;;;;;;13.2;100.0;100890;;;;
2022/10/23 05:55:00;;;;;;;0.4;0.4;;;;;;;13.4;100.0;100880;;;;
2022/10/23 05:56:04;;;;;;;0.4;0.4;;;;;;;13.4;100.0;100880;;;;
2022/10/23 05:57:00;;;;;;;0.4;0.4;;;;;;;13.4;100.0;100880;;;;
2022/10/23 05:58:01;;;;;;;0.4;0.4;;;;;;;13.4;100.0;100880;;;;
2022/10/23 05:59:00;;;;;;;0.4;0.4;;;;;;;13.3;100.0;100880;;;;
2022/10/23 06:00:01;;;;;;;0.4;0.4;;;;;;;13.3;100.0;100880;;;;
2022/10/23 06:01:03;;;;;;;0.4;0.4;;;;;;;13.2;100.0;100880;;;;
2022/10/23 06:02:00;;;;;;;0.9;0.9;;;;;;;13.2;100.0;100880;;;;
2022/10/23 06:03:00;;;;;;;0.9;0.9;;;;;;;13.1;100.0;100880;;;;
2022/10/23 06:04:00;;;;;;;0.9;0.9;;;;;;;13.1;100.0;100880;;;;
2022/10/23 06:05:00;;;;;;;0.9;0.9;;;;;;;13.3;100.0;100880;;;;
2022/10/23 06:06:00;;;;;;;0.9;0.9;;;;;;;13.3;100.0;100880;;;;
2022/10/23 06:07:00;;;;;;;0.9;0.9;;;;;;;13.3;100.0;100870;;;;
2022/10/23 06:08:00;;;;;;;0.9;0.9;;;;;;;13.3;100.0;100870;;;;
2022/10/23 06:09:00;;;;;;;0.9;0.9;;;;;;;13.3;100.0;100870;;;;
2022/10/23 06:10:00;;;;;;;0.9;0.9;;;;;;;13.3;100.0;100870;;;;
2022/10/23 06:11:10;;;;;;;0.9;0.9;;;;;;;13.3;100.0;100860;;;;
2022/10/23 06:12:01;;;;;;;0.9;0.9;;;;;;;13.3;100.0;100860;;;;
2022/10/23 06:13:00;;;;;;;0.9;0.9;;;;;;;13.1;100.0;100860;;;;
2022/10/23 06:14:00;;;;;;;0.9;0.9;;;;;;;13.1;100.0;100860;;;;
2022/10/23 06:15:00;;;;;;;0.9;0.9;;;;;;;13.2;100.0;100870;;;;
2022/10/23 06:16:10;;;;;;;0.9;0.9;;;;;;;13.2;100.0;100870;;;;
2022/10/23 06:17:00;;;;;;;0.9;0.9;;;;;;;13.2;100.0;100860;;;;
2022/10/23 06:18:00;;;;;;;0.9;0.9;;;;;;;13.2;100.0;100860;;;;
2022/10/23 06:19:00;;;;;;;0.9;0.9;;;;;;;13.3;100.0;100860;;;;
2022/10/23 06:20:01;;;;;;;0.9;0.9;;;;;;;13.3;100.0;100860;;;;
2022/10/23 06:21:00;;;;;;;0.9;0.9;;;;;;;13.3;100.0;100860;;;;
2022/10/23 06:22:00;;;;;;;0.5;0.5;;;;;;;13.3;100.0;100860;;;;